Aeroporto :
LOGIN :

Iscrizione | Disclaimer

   EN    FR    IT 

 










Sommario :    VFR   VFR Marginale   IFR   IFR Intensivo   IFR Molto Intensivo
Visibilità : 
Base nubi : 
>= 8 km
>= 3000ft
5 / 8 km
1000 / 3000 ft
1500m / 5 km
500 / 1000 ft
800 / 1500m
200 / 500 ft
< 800m
< 200 ft
Simboli :   Temporali  Nebbia  Neve Forte  Precipitazioni Forti  Vento > 20 kt
SIGMETs :   Varie  Temporali  Ghiacco  Turbolenza  Onda orograficha  Ceneri Vulcaniche







- Altitudine del aeroporto : 194 ft
- Codice IATA : LME
- Carte del aeroporto


LFRM - Le Mans

ULTIMO METAR :
  • 201800Z AUTO 22009KT 190V270 CAVOK 26/15 Q1015 NOSIG

METARs OBSOLETI :
  • 201730Z AUTO 24010KT 210V270 CAVOK 26/15 Q1014 NOSIG
  • 201700Z AUTO 25008KT 210V290 9999 FEW049 BKN058 27/15 Q1014 NOSIG
  • 201630Z AUTO 24008KT 190V300 9999 BKN046/// BKN056/// BKN066/// ///CB 27/15 Q1014 BECMG SCT025 BKN035
  • 201600Z AUTO 25009KT 210V300 9999 SCT039/// BKN048/// BKN056/// ///CB 26/16 Q1014 BECMG SCT025 BKN035
  • 201530Z AUTO 23009KT 190V290 9999 FEW039/// SCT078/// ///TCU 26/17 Q1014 BECMG SCT025 BKN035

TAF TAF LFRM
Valido dal 20 a 18 ore il 21 a 18 ore UTC


201700Z 2018/2118 25009KT 9999 SCT045
BECMG 2101/2103 VRB03KT
Nessun NOTAM noto per questo aeroporto.



MetMap, La meteo Aeronautica in un colpo d'occhio ! - Copyright ORBIFLY Dicembre 2007 - Disclaimer

ORBIFLY MET'MAP TEAM :

Programmazione e sviluppo : Alexandra Zaïnal
Concezione e sviluppo : Baudouin d'Aumeries
Co-Programmazione e sviluppo : Marc-Olivier Méhu
Supporto tecnico e logistico : Manuel Goepfert
Aiuto per la traduzione : Arnaldo La Scala

Contatto : metmap@orbifly.com




FONTI E CREDITI :

   NOAA